createdAt,value
2023-01-05T00:00:23.020Z,33.97
2023-01-05T00:02:51.701Z,33.23
2023-01-05T00:05:20.325Z,33.63
2023-01-05T00:07:48.895Z,32.93
2023-01-05T00:10:35.689Z,33.17
2023-01-05T00:13:22.358Z,34.60
2023-01-05T00:16:08.772Z,32.00
2023-01-05T00:18:55.126Z,34.23
2023-01-05T00:21:42.103Z,35.70
2023-01-05T00:24:10.591Z,31.67
2023-01-05T00:26:39.298Z,29.73
2023-01-05T00:29:07.920Z,31.67
2023-01-05T00:31:36.543Z,31.57
2023-01-05T00:34:05.273Z,32.77
2023-01-05T00:36:33.870Z,31.87
2023-01-05T00:39:02.459Z,27.13
2023-01-05T00:41:31.052Z,29.50
2023-01-05T00:43:59.762Z,29.67
2023-01-05T00:46:28.407Z,28.33
2023-01-05T00:48:57.079Z,31.20
2023-01-05T00:51:25.684Z,28.50
2023-01-05T00:53:54.385Z,30.47
2023-01-05T00:56:23.025Z,28.07
2023-01-05T00:58:55.804Z,29.03
2023-01-05T01:01:27.707Z,31.83
2023-01-05T01:03:57.405Z,30.03
2023-01-05T01:06:26.439Z,30.17
2023-01-05T01:08:55.068Z,27.07
2023-01-05T01:11:23.713Z,29.10
2023-01-05T01:13:52.336Z,26.93
2023-01-05T01:16:21.221Z,28.67
2023-01-05T01:18:50.339Z,30.73
2023-01-05T01:21:18.941Z,30.03
2023-01-05T01:23:47.670Z,30.30
2023-01-05T01:26:16.300Z,29.00
2023-01-05T01:28:46.574Z,25.57
2023-01-05T01:31:15.573Z,30.03
2023-01-05T01:33:44.268Z,32.70
2023-01-05T01:36:12.838Z,29.60
2023-01-05T01:38:41.439Z,27.03
2023-01-05T01:41:10.200Z,31.20
2023-01-05T01:43:44.859Z,26.67
2023-01-05T01:46:15.080Z,28.33
2023-01-05T01:48:49.572Z,29.07
2023-01-05T01:51:21.140Z,29.03
2023-01-05T01:53:52.802Z,27.93
2023-01-05T01:56:24.711Z,28.07
2023-01-05T01:58:54.489Z,29.17
2023-01-05T02:01:23.502Z,32.07
2023-01-05T02:03:52.374Z,28.07
2023-01-05T02:06:21.169Z,28.67
2023-01-05T02:08:50.686Z,29.03
2023-01-05T02:11:31.423Z,29.73
2023-01-05T02:14:17.551Z,31.57
2023-01-05T02:17:11.154Z,30.57
2023-01-05T02:19:48.923Z,28.90
2023-01-05T02:22:23.684Z,30.67
2023-01-05T02:25:22.590Z,29.67
2023-01-05T02:28:09.501Z,29.03
2023-01-05T02:31:08.510Z,31.73
2023-01-05T02:33:50.668Z,29.60
2023-01-05T02:36:29.127Z,38.03
2023-01-05T02:39:03.771Z,30.00
2023-01-05T02:41:35.368Z,32.23
2023-01-05T02:44:04.304Z,35.60
2023-01-05T02:46:33.025Z,34.77
2023-01-05T02:49:04.639Z,38.47
2023-01-05T02:51:38.890Z,40.53
2023-01-05T02:54:22.223Z,36.17
2023-01-05T02:56:53.932Z,37.37
2023-01-05T02:59:40.091Z,34.17
2023-01-05T03:02:11.913Z,34.90
2023-01-05T03:04:49.866Z,38.10
2023-01-05T03:07:21.532Z,35.40
2023-01-05T03:09:50.721Z,36.90
2023-01-05T03:12:49.076Z,36.57
2023-01-05T03:15:23.539Z,34.33
2023-01-05T03:17:55.199Z,34.37
2023-01-05T03:20:26.857Z,33.93
2023-01-05T03:23:16.187Z,36.43
2023-01-05T03:26:04.129Z,37.27
2023-01-05T03:28:53.348Z,31.03
2023-01-05T03:32:00.843Z,32.73
2023-01-05T03:34:58.575Z,35.83
2023-01-05T03:37:36.094Z,40.23
2023-01-05T03:40:09.861Z,34.07
2023-01-05T03:42:39.621Z,35.00
2023-01-05T03:45:10.231Z,33.10
2023-01-05T03:47:38.837Z,32.40
2023-01-05T03:50:08.784Z,31.50
2023-01-05T03:52:37.521Z,33.43
2023-01-05T03:55:07.012Z,34.57
2023-01-05T03:57:35.800Z,37.50
2023-01-05T04:00:06.074Z,33.50
2023-01-05T04:02:34.969Z,30.90
2023-01-05T04:05:03.750Z,32.07
2023-01-05T04:07:32.530Z,36.47
2023-01-05T04:10:01.474Z,34.23
2023-01-05T04:12:30.549Z,34.53
2023-01-05T04:14:59.137Z,41.23
2023-01-05T04:17:33.660Z,40.27
2023-01-05T04:20:17.606Z,37.33
2023-01-05T04:22:55.034Z,43.47
2023-01-05T04:25:23.846Z,52.23
2023-01-05T04:27:52.498Z,49.00
2023-01-05T04:30:21.659Z,48.93
2023-01-05T04:32:50.460Z,49.10
2023-01-05T04:35:18.946Z,51.63
2023-01-05T04:37:47.495Z,45.40
2023-01-05T04:40:16.707Z,50.37
2023-01-05T04:43:11.315Z,52.30
2023-01-05T04:48:21.888Z,43.10
2023-01-05T04:50:55.614Z,46.77
2023-01-05T04:53:24.660Z,39.73
2023-01-05T04:55:54.005Z,41.77
2023-01-05T04:58:25.661Z,38.93
2023-01-05T05:00:54.157Z,45.53
2023-01-05T05:03:24.692Z,48.07
2023-01-05T05:05:53.178Z,35.30
2023-01-05T05:08:24.858Z,39.17
2023-01-05T05:10:53.454Z,40.93
2023-01-05T05:13:22.074Z,39.20
2023-01-05T05:15:50.807Z,43.03
2023-01-05T05:18:19.695Z,37.97
2023-01-05T05:20:51.762Z,39.27
2023-01-05T05:23:22.351Z,42.63
2023-01-05T05:25:52.647Z,41.43
2023-01-05T05:28:23.227Z,37.57
2023-01-05T05:30:51.882Z,41.67
2023-01-05T05:33:20.492Z,42.50
2023-01-05T05:35:49.149Z,41.37
2023-01-05T05:38:19.481Z,43.93
2023-01-05T05:40:50.145Z,43.57
2023-01-05T05:43:19.067Z,47.87
2023-01-05T05:45:50.624Z,43.50
2023-01-05T05:48:18.203Z,48.93
2023-01-05T05:50:47.526Z,46.83
2023-01-05T05:53:16.561Z,52.30
2023-01-05T05:55:56.832Z,44.23
2023-01-05T05:58:36.800Z,47.03
2023-01-05T06:01:15.868Z,48.03
2023-01-05T06:03:47.175Z,50.83
2023-01-05T06:06:16.605Z,47.57
2023-01-05T06:08:52.929Z,44.03
2023-01-05T06:11:28.687Z,46.53
2023-01-05T06:14:08.635Z,53.17
2023-01-05T06:16:43.560Z,53.30
2023-01-05T06:19:13.825Z,50.57
2023-01-05T06:21:53.059Z,51.17
2023-01-05T06:24:33.536Z,51.07
2023-01-05T06:27:03.004Z,52.13
2023-01-05T06:29:31.732Z,52.53
2023-01-05T06:32:02.195Z,55.60
2023-01-05T06:34:38.850Z,51.00
2023-01-05T06:37:31.829Z,51.33
2023-01-05T06:40:05.328Z,56.07
2023-01-05T06:42:40.887Z,48.20
2023-01-05T06:45:10.965Z,58.17
2023-01-05T06:47:39.610Z,48.83
2023-01-05T06:50:09.146Z,47.63
2023-01-05T06:52:44.428Z,47.00
2023-01-05T06:55:25.786Z,48.83
2023-01-05T06:58:00.487Z,46.13
2023-01-05T07:00:25.683Z,47.70
2023-01-05T07:02:54.703Z,46.17
2023-01-05T07:05:27.645Z,46.43
2023-01-05T07:08:21.151Z,47.60
2023-01-05T07:14:33.755Z,45.30
2023-01-05T07:17:00.559Z,45.47
2023-01-05T07:19:29.482Z,49.47
2023-01-05T07:25:16.210Z,54.53
2023-01-05T07:27:45.419Z,55.33
2023-01-05T07:30:26.188Z,54.13
2023-01-05T07:33:18.741Z,53.57
2023-01-05T07:42:20.141Z,59.20
2023-01-05T07:45:38.668Z,54.07
2023-01-05T07:47:43.443Z,55.40
2023-01-05T07:50:18.649Z,53.67
2023-01-05T07:52:52.067Z,55.43
2023-01-05T07:55:29.214Z,48.83
2023-01-05T07:58:02.476Z,47.00
2023-01-05T08:00:39.399Z,46.00
2023-01-05T08:03:17.850Z,54.63
2023-01-05T08:05:51.406Z,52.43
2023-01-05T08:08:30.747Z,46.03
2023-01-05T08:11:05.038Z,62.50
2023-01-05T08:13:54.575Z,74.90
2023-01-05T08:16:28.350Z,41.07
2023-01-05T08:18:57.361Z,47.77
2023-01-05T08:21:31.935Z,47.40
2023-01-05T08:24:04.849Z,44.07
2023-01-05T08:26:39.986Z,45.50
2023-01-05T08:29:08.758Z,37.70
2023-01-05T08:31:40.415Z,42.90
2023-01-05T08:34:10.027Z,43.10
2023-01-05T08:36:59.983Z,44.83
2023-01-05T08:39:29.824Z,41.43
2023-01-05T08:42:21.267Z,42.23
2023-01-05T08:45:03.688Z,53.20
2023-01-05T08:47:40.711Z,52.50
2023-01-05T08:50:16.280Z,46.97
2023-01-05T08:52:48.362Z,77.30
2023-01-05T08:55:26.255Z,56.23
2023-01-05T08:58:00.850Z,53.73
2023-01-05T09:00:34.533Z,51.20
2023-01-05T09:06:00.320Z,51.53
2023-01-05T09:08:44.413Z,49.80
2023-01-05T09:11:16.188Z,53.50
2023-01-05T09:13:47.816Z,53.50
2023-01-05T09:16:42.512Z,46.60
2023-01-05T09:18:51.259Z,47.87
2023-01-05T09:21:22.593Z,49.90
2023-01-05T09:23:51.676Z,48.73
2023-01-05T09:26:20.436Z,49.77
2023-01-05T09:28:51.534Z,52.97
2023-01-05T09:31:22.224Z,46.03
2023-01-05T09:33:51.058Z,47.27
2023-01-05T09:36:20.913Z,43.37
2023-01-05T09:38:54.155Z,47.63
2023-01-05T09:41:26.258Z,44.07
2023-01-05T09:43:58.308Z,53.30
2023-01-05T09:46:30.072Z,43.53
2023-01-05T09:49:01.830Z,41.97
2023-01-05T09:51:31.122Z,43.67
2023-01-05T09:54:02.379Z,41.97
2023-01-05T09:59:14.276Z,39.83
2023-01-05T10:01:45.585Z,42.15
2023-01-05T10:04:30.736Z,40.77
2023-01-05T10:07:03.160Z,40.87
2023-01-05T10:09:36.562Z,40.07
2023-01-05T10:12:37.422Z,36.20
2023-01-05T10:15:15.337Z,38.23
2023-01-05T10:17:45.235Z,40.23
2023-01-05T10:20:30.202Z,36.17
2023-01-05T10:23:14.239Z,37.58
2023-01-05T10:25:51.350Z,35.03
2023-01-05T10:28:44.648Z,42.88
2023-01-05T10:31:31.205Z,38.40
2023-01-05T10:34:14.375Z,43.43
2023-01-05T10:37:07.879Z,36.42
2023-01-05T10:39:27.099Z,37.50
2023-01-05T10:41:58.714Z,38.03
2023-01-05T10:44:39.012Z,35.30
2023-01-05T10:47:12.162Z,35.90
2023-01-05T10:49:43.752Z,42.05
2023-01-05T10:52:16.013Z,38.35
2023-01-05T10:54:53.481Z,41.30
2023-01-05T10:57:36.636Z,39.73
2023-01-05T11:00:12.048Z,42.10
2023-01-05T11:02:44.141Z,35.20
2023-01-05T11:05:18.626Z,68.00
2023-01-05T11:07:56.809Z,110.97
2023-01-05T11:10:31.241Z,44.83
2023-01-05T11:13:06.027Z,33.40
2023-01-05T11:15:37.658Z,58.70
2023-01-05T11:18:07.823Z,46.10
2023-01-05T11:20:36.598Z,38.02
2023-01-05T11:23:10.050Z,36.15
2023-01-05T11:28:51.098Z,43.40
2023-01-05T11:31:20.680Z,44.25
2023-01-05T11:33:51.086Z,40.70
2023-01-05T11:36:19.772Z,40.80
2023-01-05T11:38:54.258Z,38.13
2023-01-05T11:41:24.987Z,43.42
2023-01-05T11:43:54.668Z,50.43
2023-01-05T11:46:24.168Z,38.40
2023-01-05T11:48:55.893Z,44.20
2023-01-05T11:51:41.975Z,43.30
2023-01-05T11:54:31.521Z,55.33
2023-01-05T11:57:17.775Z,44.73
2023-01-05T11:59:47.916Z,35.60
2023-01-05T12:02:25.567Z,46.77
2023-01-05T12:05:01.847Z,39.40
2023-01-05T12:07:45.029Z,36.80
2023-01-05T12:10:36.335Z,33.20
2023-01-05T12:13:31.829Z,32.70
2023-01-05T12:16:09.487Z,27.62
2023-01-05T12:18:53.472Z,32.58
2023-01-05T14:25:54.296Z,10.78
2023-01-05T14:32:33.926Z,15.70
2023-01-05T15:17:08.720Z,45.03
2023-01-05T15:23:04.548Z,21.12
2023-01-05T15:26:02.639Z,22.70
2023-01-05T15:31:47.526Z,25.63
2023-01-05T15:34:20.141Z,35.30
2023-01-05T15:36:57.596Z,38.03
2023-01-05T15:39:34.998Z,35.93
2023-01-05T15:42:22.122Z,35.07
2023-01-05T15:44:58.229Z,41.63
2023-01-05T15:47:30.932Z,73.17
2023-01-05T15:50:03.027Z,81.73
2023-01-05T15:52:40.179Z,43.23
2023-01-05T15:55:14.960Z,60.13
2023-01-05T15:57:44.148Z,62.00
2023-01-05T16:00:30.860Z,41.20
2023-01-05T16:03:00.182Z,79.43
2023-01-05T16:05:32.823Z,52.40
2023-01-05T16:08:06.449Z,77.80
2023-01-05T16:10:41.083Z,67.00
2023-01-05T16:13:18.243Z,210.93
2023-01-05T16:15:51.644Z,300.67
2023-01-05T16:18:33.287Z,90.30
2023-01-05T17:26:25.754Z,28.63
2023-01-05T18:07:54.285Z,41.00
2023-01-05T18:11:01.307Z,41.67
2023-01-05T18:31:55.294Z,44.30
2023-01-05T18:34:24.322Z,61.67
2023-01-05T18:37:01.581Z,41.90
2023-01-05T18:39:24.164Z,45.03
2023-01-05T18:41:56.434Z,34.87
2023-01-05T18:44:25.352Z,42.03
2023-01-05T18:47:02.761Z,45.77
2023-01-05T18:53:20.168Z,36.50
2023-01-05T18:55:50.043Z,45.87
2023-01-05T18:58:18.801Z,49.73
2023-01-05T19:00:47.564Z,57.23
2023-01-05T19:03:16.391Z,52.87
2023-01-05T19:05:46.083Z,52.03
2023-01-05T19:08:15.127Z,51.93
2023-01-05T19:10:44.017Z,54.10
2023-01-05T19:13:12.735Z,66.70
2023-01-05T19:15:45.490Z,59.03
2023-01-05T19:18:17.227Z,56.67
2023-01-05T19:30:33.256Z,41.20
2023-01-05T19:49:24.188Z,55.93
2023-01-05T19:52:00.220Z,44.27
2023-01-05T19:55:13.626Z,42.23
2023-01-05T19:58:25.855Z,47.00
2023-01-05T20:00:56.808Z,56.30
2023-01-05T20:24:14.950Z,52.20
2023-01-05T20:26:45.986Z,56.93
2023-01-05T20:29:16.409Z,56.13
2023-01-05T20:37:59.377Z,69.83
2023-01-05T20:40:30.942Z,69.57
2023-01-05T20:42:59.765Z,70.53
2023-01-05T20:45:28.590Z,76.13
2023-01-05T20:47:58.746Z,80.53
2023-01-05T20:50:27.369Z,84.37
2023-01-05T20:52:56.055Z,81.30
2023-01-05T20:55:24.740Z,80.43
2023-01-05T20:57:53.411Z,75.47
2023-01-05T21:22:19.705Z,70.70
2023-01-05T21:24:48.679Z,78.20
2023-01-05T21:50:32.544Z,158.73
2023-01-05T21:53:56.825Z,67.87
2023-01-05T21:56:40.790Z,54.07
2023-01-05T22:02:16.893Z,63.77
2023-01-05T22:46:40.745Z,51.27
2023-01-05T22:49:34.832Z,49.53
2023-01-05T22:52:05.109Z,44.97
2023-01-05T22:54:33.869Z,40.50
2023-01-05T22:57:02.483Z,45.00
2023-01-05T22:59:31.069Z,44.47
2023-01-05T23:01:59.745Z,41.27
2023-01-05T23:04:28.544Z,40.80
2023-01-05T23:06:57.206Z,43.63
2023-01-05T23:09:25.849Z,33.77
2023-01-05T23:11:54.543Z,37.27
2023-01-05T23:14:26.141Z,35.33
2023-01-05T23:16:56.488Z,30.93
2023-01-05T23:19:25.114Z,38.33
2023-01-05T23:21:53.729Z,36.83
2023-01-05T23:24:22.410Z,24.83
2023-01-05T23:26:51.110Z,33.03
2023-01-05T23:29:19.896Z,19.27
2023-01-05T23:31:48.582Z,20.73
2023-01-05T23:34:17.311Z,22.13
2023-01-05T23:36:45.960Z,19.33
2023-01-05T23:39:14.712Z,31.10
2023-01-05T23:41:43.537Z,18.77
2023-01-05T23:44:14.646Z,16.93
2023-01-05T23:46:44.089Z,18.27
2023-01-05T23:49:14.199Z,17.20
2023-01-05T23:51:42.793Z,18.63
2023-01-05T23:54:11.479Z,14.87
2023-01-05T23:56:40.160Z,16.57
2023-01-05T23:59:10.295Z,18.30
